Terminal Aerodrome Forecast
Issued by NWS Dodge City, KS

Home | Current Version | Previous Version | Graphics & Text | Print | Product List | Glossary Off
Versions: 1 2 3 4 5 6 7 8 9 10 11 12 13 14 15 16 17 18 19 20 21 22 23 24 25 26

000
FTUS43 KDDC 150520
TAFDDC
TAF
KDDC 150520Z 1506/1606 16010KT P6SM BKN250
     FM151600 18013G23KT P6SM SCT250
     FM152300 16015G25KT P6SM VCTS BKN090CB
     FM160200 16017KT P6SM BKN050=

USA.gov is the U.S. government's official web portal to all federal, state and local government web resources and services.